Key Lake Airport
CYKJ : now visible

Airfield :











YOU CAN JOIN US ON...

 
LOGIN :

Register | Disclaimer

   EN    FR    IT 

 









Legend :    VFR   Marginal VFR   IFR   Intensive IFR   Very Intensive IFR
Visi :
Ceiling :
>= 8 km
>= 3000ft
5 to 8 km
1000 to 3000 ft
1500m to 5 km
500 to 1000 ft
800 to 1500m
200 to 500 ft
< 800m
< 200 ft
Symbols :   Thunderstorms  Fog  Heavy snow  Heavy precipitations  Wind > 20 kt







- Airport Elevation : 1679 ft
- IATA code : YKJ


CYKJ - Key Lake

CURRENT METAR :
  • 181700Z AUTO VRB04KT 9SM CLR 11/03 A2984 RMK SLP124

EXPIRED METARs :
  • 181600Z AUTO 35005KT 9SM CLR 09/03 A2985 RMK SLP126
  • 181500Z AUTO 33007KT 9SM CLR 07/04 A2984 RMK SLP125

TAF TAF CYKJ
Valid from the 18 at 13:00 until the 19 at 00:00 UTC


181238Z 1813/1824 34008KT P6SM SKC RMK FCST BASED ON AUTO OBS. NXT FCST BY 181900Z
No reported NOTAMs for that airfield.



MET'MAP, your aeronautical weather chart ! - Copyright ORBIFLY December 2007 - Disclaimer

ORBIFLY MET'MAP TEAM :

Programming & Development : Alexandra Zaïnal
Concept & Development : Baudouin d'Aumeries
Co-Development & Prog : Marc-Olivier Méhu
Technical & hardware support : Manuel Goepfert

Contact : metmap@orbifly.com




SOURCES & CREDITS :

   NOAA       Earth
Advisory